< < Back
Terminal Aerodrome Forecast


Current Version              Previous Versions:   1  2  3  4  5  6  7  8  9  

Terminal Aerodrome Forecast

028
FTUS42 KFFC 262328
TAFPDK
TAF
KPDK 262328Z 2700/2724 20007KT P6SM FEW080
     FM270100 21003KT P6SM SKC
     FM271500 23004KT P6SM SCT040
     FM271800 23008KT P6SM SCT050 PROB30 2719/2723 5SM TSRA
      BKN035CB=



Latest METAR

630
SAUS70 KWBC 271100 RRK
MTRPDK
METAR KPDK 271053Z 26006KT 10SM OVC011 24/22 A3007 RMK AO2 SLP160
T02440217


USA.gov is the U.S. government's official web portal to all federal, state and local government web resources and services.